Time;durP1;ratioP1;P1;durP2;ratioP2;P2;SDS_P1;SDS_P2;PMS_P1;PMS_P2;Temp;Humidity;BMP_temperature;BMP_pressure;BME280_temperature;BME280_humidity;BME280_pressure;Samples;Min_cycle;Max_cycle;Signal;HPM_P1;HPM_P2
2022/03/03 00:00:11;;;;;;;;;;;-1.20;84.60;;;;;;5082203;28;20182;-69
2022/03/03 00:02:37;;;;;;;;;;;-1.20;84.10;;;;;;5080985;28;20031;-70
2022/03/03 00:05:04;;;;;;;;;;;-1.20;83.80;;;;;;5082261;28;19930;-70
2022/03/03 00:07:29;;;;;;;;;;;-1.30;83.90;;;;;;5081057;28;19915;-70
2022/03/03 00:09:55;;;;;;;;;;;-1.30;84.10;;;;;;5082207;28;19955;-69
2022/03/03 00:12:20;;;;;;;;;;;-1.40;84.30;;;;;;5081940;28;20200;-69
2022/03/03 00:14:46;;;;;;;;;;;-1.40;84.80;;;;;;5081954;28;19909;-71
2022/03/03 00:17:12;;;;;;;;;;;-1.30;84.30;;;;;;5081030;28;19909;-70
2022/03/03 00:19:38;;;;;;;;;;;-1.40;84.40;;;;;;5064436;28;19909;-70
2022/03/03 00:22:04;;;;;;;;;;;-1.50;84.40;;;;;;5081898;28;19909;-69
2022/03/03 00:24:29;;;;;;;;;;;-1.60;84.70;;;;;;5082124;28;19940;-70
2022/03/03 00:26:55;;;;;;;;;;;-1.60;84.60;;;;;;5082219;28;19917;-69
2022/03/03 00:29:21;;;;;;;;;;;-1.60;84.30;;;;;;5081971;28;20246;-69
2022/03/03 00:31:47;;;;;;;;;;;-1.60;83.80;;;;;;5081613;28;20089;-68
2022/03/03 00:34:13;;;;;;;;;;;-1.60;83.70;;;;;;5080968;28;19916;-70
2022/03/03 00:36:40;;;;;;;;;;;-1.60;83.00;;;;;;5085606;28;19940;-69
2022/03/03 00:39:05;;;;;;;;;;;-1.70;82.90;;;;;;5068289;28;19955;-69
2022/03/03 00:41:31;;;;;;;;;;;-1.70;83.30;;;;;;5085697;28;19912;-69
2022/03/03 00:43:57;;;;;;;;;;;-1.80;83.80;;;;;;5086015;28;19944;-68
2022/03/03 00:46:25;;;;;;;;;;;-1.70;85.20;;;;;;5083870;28;19916;-69
2022/03/03 00:48:51;;;;;;;;;;;-1.60;87.30;;;;;;5085733;28;20066;-69
2022/03/03 00:51:18;;;;;;;;;;;-1.60;87.70;;;;;;5085707;28;19912;-69
2022/03/03 00:53:43;;;;;;;;;;;-1.70;87.60;;;;;;5085668;28;19908;-69
2022/03/03 00:56:09;;;;;;;;;;;-1.60;88.40;;;;;;5085638;28;20455;-69
2022/03/03 00:58:35;;;;;;;;;;;-1.50;89.50;;;;;;5101379;28;20030;-69
2022/03/03 01:01:01;;;;;;;;;;;-1.50;90.10;;;;;;5083956;28;19939;-69
2022/03/03 01:03:27;;;;;;;;;;;-1.50;90.10;;;;;;5085428;28;20169;-69
2022/03/03 01:05:53;;;;;;;;;;;-1.60;90.00;;;;;;5085452;28;20207;-70
2022/03/03 01:08:19;;;;;;;;;;;-1.60;89.80;;;;;;5084220;28;19971;-70
2022/03/03 01:10:45;;;;;;;;;;;-1.80;90.10;;;;;;5085049;28;20022;-70
2022/03/03 01:13:11;;;;;;;;;;;-1.80;90.00;;;;;;5085350;28;19954;-70
2022/03/03 01:15:36;;;;;;;;;;;-1.90;90.00;;;;;;5083905;28;20111;-70
2022/03/03 01:18:02;;;;;;;;;;;-1.80;89.50;;;;;;5085114;28;19916;-69
2022/03/03 01:20:28;;;;;;;;;;;-1.80;88.80;;;;;;5083859;28;19908;-70
2022/03/03 01:22:54;;;;;;;;;;;-1.80;88.50;;;;;;5084915;28;19965;-71
2022/03/03 01:25:20;;;;;;;;;;;-1.80;88.00;;;;;;5085177;28;19916;-72
2022/03/03 01:27:45;;;;;;;;;;;-1.90;88.30;;;;;;5084987;28;19909;-71
2022/03/03 01:30:12;;;;;;;;;;;-2.00;88.10;;;;;;5083645;28;19912;-71
2022/03/03 01:32:37;;;;;;;;;;;-2.00;87.90;;;;;;5083540;28;20171;-73
2022/03/03 01:35:03;;;;;;;;;;;-2.10;87.90;;;;;;5084978;28;19927;-72
2022/03/03 01:37:29;;;;;;;;;;;-2.10;88.30;;;;;;5083770;28;19916;-72
2022/03/03 01:39:55;;;;;;;;;;;-2.10;88.30;;;;;;5084885;28;19946;-70
2022/03/03 01:42:21;;;;;;;;;;;-2.10;88.60;;;;;;5084485;28;19909;-69
2022/03/03 01:44:47;;;;;;;;;;;-2.30;88.50;;;;;;5083870;28;19954;-70
2022/03/03 01:47:24;;;;;;;;;;;-2.20;88.60;;;;;;5082430;28;19912;-70
2022/03/03 01:49:50;;;;;;;;;;;-2.30;88.50;;;;;;5083705;28;20111;-69
2022/03/03 01:52:16;;;;;;;;;;;-2.30;88.50;;;;;;5084433;28;19916;-69
2022/03/03 01:54:42;;;;;;;;;;;-2.40;88.90;;;;;;5083506;28;19909;-69
2022/03/03 01:57:07;;;;;;;;;;;-2.40;89.10;;;;;;5084536;28;19909;-69
2022/03/03 01:59:33;;;;;;;;;;;-2.50;89.60;;;;;;5084233;28;19909;-68
2022/03/03 02:02:00;;;;;;;;;;;-2.50;89.70;;;;;;5082988;28;19908;-69
2022/03/03 02:04:25;;;;;;;;;;;-2.50;89.50;;;;;;5083292;28;19917;-71
2022/03/03 02:06:51;;;;;;;;;;;-2.60;89.50;;;;;;5083200;28;19915;-69
2022/03/03 02:09:17;;;;;;;;;;;-2.50;89.50;;;;;;5084234;28;19908;-70
2022/03/03 02:11:44;;;;;;;;;;;-2.60;89.40;;;;;;5083938;28;19915;-70
2022/03/03 02:14:10;;;;;;;;;;;-2.50;89.40;;;;;;5084163;28;19944;-69
2022/03/03 02:16:36;;;;;;;;;;;-2.60;89.10;;;;;;5083905;28;19915;-69
2022/03/03 02:19:01;;;;;;;;;;;-2.60;88.90;;;;;;5084095;28;19940;-69
2022/03/03 02:21:27;;;;;;;;;;;-2.60;89.30;;;;;;5082720;28;19915;-71
2022/03/03 02:23:53;;;;;;;;;;;-2.60;89.00;;;;;;5084112;28;20207;-71
2022/03/03 02:26:20;;;;;;;;;;;-2.60;88.90;;;;;;5082912;28;19915;-71
2022/03/03 02:28:46;;;;;;;;;;;-2.70;89.30;;;;;;5082680;28;19948;-72
2022/03/03 02:31:12;;;;;;;;;;;-2.70;89.70;;;;;;5082220;28;19927;-72
2022/03/03 02:33:38;;;;;;;;;;;-2.70;89.80;;;;;;5084019;28;19912;-73
2022/03/03 02:36:19;;;;;;;;;;;-2.80;90.00;;;;;;5083757;28;20029;-71
2022/03/03 02:38:45;;;;;;;;;;;-2.80;90.00;;;;;;5082488;28;19994;-71
2022/03/03 02:41:11;;;;;;;;;;;-2.80;90.00;;;;;;5082334;28;20285;-71
2022/03/03 02:43:37;;;;;;;;;;;-2.70;89.30;;;;;;5083626;28;19908;-70
2022/03/03 02:46:04;;;;;;;;;;;-2.70;89.20;;;;;;5082736;28;19917;-71
2022/03/03 02:48:30;;;;;;;;;;;-2.80;89.70;;;;;;5082397;28;19949;-70
2022/03/03 02:50:56;;;;;;;;;;;-2.80;90.00;;;;;;5081946;28;19987;-72
2022/03/03 02:53:21;;;;;;;;;;;-2.90;90.10;;;;;;5083540;28;19915;-72
2022/03/03 02:55:47;;;;;;;;;;;-2.90;90.20;;;;;;5082375;28;20188;-70
2022/03/03 02:58:13;;;;;;;;;;;-3.00;90.30;;;;;;5083067;28;19924;-71
2022/03/03 03:00:42;;;;;;;;;;;-2.90;90.50;;;;;;5082871;28;19908;-71
2022/03/03 03:03:09;;;;;;;;;;;-3.00;90.40;;;;;;5083289;28;20219;-69
2022/03/03 03:05:35;;;;;;;;;;;-3.10;90.60;;;;;;5082238;28;19924;-69
2022/03/03 03:08:01;;;;;;;;;;;-3.10;90.70;;;;;;5083133;28;19946;-69
2022/03/03 03:10:26;;;;;;;;;;;-3.10;90.70;;;;;;5082998;28;20067;-69
2022/03/03 03:12:52;;;;;;;;;;;-3.10;90.60;;;;;;5082931;28;20018;-69
2022/03/03 03:15:18;;;;;;;;;;;-3.10;90.70;;;;;;5082762;28;19915;-69
2022/03/03 03:17:43;;;;;;;;;;;-3.10;90.80;;;;;;5083125;28;19954;-69
2022/03/03 03:20:10;;;;;;;;;;;-3.20;90.70;;;;;;5082880;28;19955;-69
2022/03/03 03:22:36;;;;;;;;;;;-3.20;90.80;;;;;;5081671;28;19951;-69
2022/03/03 03:25:07;;;;;;;;;;;-3.30;91.10;;;;;;5082482;28;20195;-70
2022/03/03 03:27:33;;;;;;;;;;;-3.30;91.10;;;;;;5082439;28;19962;-69
2022/03/03 03:29:59;;;;;;;;;;;-3.30;91.00;;;;;;5082540;28;19991;-69
2022/03/03 03:32:25;;;;;;;;;;;-3.30;91.00;;;;;;5064835;28;19920;-69
2022/03/03 03:34:51;;;;;;;;;;;-3.40;91.20;;;;;;5082804;28;19908;-69
2022/03/03 03:37:17;;;;;;;;;;;-3.40;91.30;;;;;;5082730;28;19936;-69
2022/03/03 03:39:43;;;;;;;;;;;-3.40;91.30;;;;;;5082726;28;19916;-69
2022/03/03 03:42:08;;;;;;;;;;;-3.40;91.50;;;;;;5081366;28;20162;-69
2022/03/03 03:44:35;;;;;;;;;;;-3.50;91.70;;;;;;5082103;28;19924;-69
2022/03/03 03:47:01;;;;;;;;;;;-3.50;91.70;;;;;;5064256;28;20203;-70
2022/03/03 03:49:27;;;;;;;;;;;-3.60;91.70;;;;;;5082562;28;19917;-70
2022/03/03 03:51:53;;;;;;;;;;;-3.50;91.60;;;;;;5082226;28;20233;-70
2022/03/03 03:54:18;;;;;;;;;;;-3.50;91.70;;;;;;5082178;28;19912;-70
2022/03/03 03:56:44;;;;;;;;;;;-3.50;91.60;;;;;;5082120;28;20143;-70
2022/03/03 03:59:10;;;;;;;;;;;-3.50;91.70;;;;;;5082356;28;20182;-70
2022/03/03 04:01:36;;;;;;;;;;;-3.60;91.70;;;;;;5078592;28;20262;-69
2022/03/03 04:04:01;;;;;;;;;;;-3.60;91.50;;;;;;5082515;28;19932;-70
2022/03/03 04:06:27;;;;;;;;;;;-3.40;91.60;;;;;;5082617;28;19931;-69
2022/03/03 04:08:53;;;;;;;;;;;-3.40;91.40;;;;;;5082471;28;19915;-70
2022/03/03 04:11:19;;;;;;;;;;;-3.30;91.30;;;;;;5085293;28;19988;-70
2022/03/03 04:13:44;;;;;;;;;;;-3.20;91.40;;;;;;5086513;28;19946;-69
2022/03/03 04:16:10;;;;;;;;;;;-3.20;91.50;;;;;;5086278;28;19909;-69
2022/03/03 04:18:36;;;;;;;;;;;-3.10;91.70;;;;;;5086438;28;20000;-69
2022/03/03 04:21:01;;;;;;;;;;;-3.20;91.80;;;;;;5086087;28;20207;-69
2022/03/03 04:23:27;;;;;;;;;;;-3.30;91.70;;;;;;5086290;28;19983;-69
2022/03/03 04:25:53;;;;;;;;;;;-3.40;91.70;;;;;;5086263;28;19909;-69
2022/03/03 04:28:18;;;;;;;;;;;-3.40;91.80;;;;;;5086213;28;19936;-69
2022/03/03 04:30:44;;;;;;;;;;;-3.40;91.90;;;;;;5085682;28;19921;-69
2022/03/03 04:33:10;;;;;;;;;;;-3.50;91.90;;;;;;5086058;28;19923;-69
2022/03/03 04:35:35;;;;;;;;;;;-3.60;92.00;;;;;;5086108;28;19908;-69
2022/03/03 04:38:01;;;;;;;;;;;-3.70;92.10;;;;;;5085783;28;20103;-69
2022/03/03 04:40:27;;;;;;;;;;;-3.60;91.80;;;;;;5086039;28;19916;-69
2022/03/03 04:42:52;;;;;;;;;;;-3.50;91.60;;;;;;5085959;28;20190;-70
2022/03/03 04:45:18;;;;;;;;;;;-3.60;91.50;;;;;;5085647;28;20251;-71
2022/03/03 04:47:44;;;;;;;;;;;-3.70;91.70;;;;;;5085667;28;19909;-72
2022/03/03 04:50:09;;;;;;;;;;;-3.70;91.80;;;;;;5085638;28;19924;-71
2022/03/03 04:52:36;;;;;;;;;;;-3.70;91.70;;;;;;5085507;28;20153;-71
2022/03/03 04:55:04;;;;;;;;;;;-3.60;91.60;;;;;;5084632;28;20245;-69
2022/03/03 04:57:29;;;;;;;;;;;-3.60;91.30;;;;;;5084546;28;19917;-69
2022/03/03 04:59:55;;;;;;;;;;;-3.60;91.20;;;;;;5085511;28;19908;-72
2022/03/03 05:02:21;;;;;;;;;;;-3.60;91.40;;;;;;5084395;28;19915;-70
2022/03/03 05:04:46;;;;;;;;;;;-3.60;91.70;;;;;;5084936;28;19912;-69
2022/03/03 05:07:12;;;;;;;;;;;-3.70;91.80;;;;;;5084266;28;19909;-71
2022/03/03 05:09:38;;;;;;;;;;;-3.80;92.00;;;;;;5084268;28;19913;-72
2022/03/03 05:12:04;;;;;;;;;;;-3.70;92.10;;;;;;5083981;28;19931;-72
2022/03/03 05:14:29;;;;;;;;;;;-3.80;92.00;;;;;;5084381;28;19920;-71
2022/03/03 05:16:56;;;;;;;;;;;-3.90;92.00;;;;;;5084071;28;19971;-72
2022/03/03 05:19:22;;;;;;;;;;;-3.90;92.20;;;;;;5084088;28;19908;-72
2022/03/03 05:21:47;;;;;;;;;;;-3.80;92.00;;;;;;5083757;28;19935;-72
2022/03/03 05:24:13;;;;;;;;;;;-3.80;91.50;;;;;;5084039;28;19909;-72
2022/03/03 05:26:39;;;;;;;;;;;-3.80;91.60;;;;;;5082981;28;19915;-70
2022/03/03 05:29:04;;;;;;;;;;;-3.80;91.60;;;;;;5084065;28;19959;-69
2022/03/03 05:31:30;;;;;;;;;;;-3.80;91.60;;;;;;5083523;28;20172;-70
2022/03/03 05:33:56;;;;;;;;;;;-3.80;91.40;;;;;;5083438;28;19909;-70
2022/03/03 05:36:21;;;;;;;;;;;-3.80;91.30;;;;;;5083421;28;19988;-69
2022/03/03 05:38:47;;;;;;;;;;;-3.90;91.60;;;;;;5065810;28;19917;-69
2022/03/03 05:41:13;;;;;;;;;;;-4.00;91.80;;;;;;5083454;28;20226;-70
2022/03/03 05:43:38;;;;;;;;;;;-4.10;92.00;;;;;;5083627;28;19916;-70
2022/03/03 05:46:04;;;;;;;;;;;-4.10;92.00;;;;;;5082700;28;19940;-69
2022/03/03 05:48:30;;;;;;;;;;;-4.00;92.00;;;;;;5098004;28;19916;-69
2022/03/03 05:50:56;;;;;;;;;;;-4.00;91.80;;;;;;5102157;28;20033;-69
2022/03/03 05:53:22;;;;;;;;;;;-4.10;91.90;;;;;;5103703;28;20122;-70
2022/03/03 05:55:51;;;;;;;;;;;-4.00;91.80;;;;;;5102779;28;19976;-70
2022/03/03 05:58:20;;;;;;;;;;;-4.00;91.70;;;;;;5103706;28;20160;-70
2022/03/03 06:00:53;;;;;;;;;;;-4.00;92.00;;;;;;5102895;28;19912;-69
2022/03/03 06:03:19;;;;;;;;;;;-4.00;92.10;;;;;;5103654;28;19987;-70
2022/03/03 06:06:01;;;;;;;;;;;-4.00;92.30;;;;;;5102365;28;19916;-70
2022/03/03 06:08:30;;;;;;;;;;;-4.00;92.20;;;;;;5101627;28;20030;-70
2022/03/03 06:11:00;;;;;;;;;;;-4.00;92.20;;;;;;5101402;28;19916;-70
2022/03/03 06:13:30;;;;;;;;;;;-3.90;92.10;;;;;;5074952;28;19987;-69
2022/03/03 06:15:56;;;;;;;;;;;-4.00;92.30;;;;;;5081357;28;19963;-69
2022/03/03 06:18:28;;;;;;;;;;;-3.90;92.30;;;;;;5080001;28;20188;-69
2022/03/03 06:20:53;;;;;;;;;;;-3.90;92.20;;;;;;5082400;28;19913;-69
2022/03/03 06:23:19;;;;;;;;;;;-3.90;92.10;;;;;;5082369;28;20262;-70
2022/03/03 06:25:47;;;;;;;;;;;-4.00;92.10;;;;;;5074512;28;20154;-69
2022/03/03 06:28:12;;;;;;;;;;;-4.00;92.10;;;;;;5081537;28;19909;-68
2022/03/03 06:30:38;;;;;;;;;;;-4.00;92.10;;;;;;5081930;28;20135;-69
2022/03/03 06:33:04;;;;;;;;;;;-4.00;92.10;;;;;;5080980;28;19908;-68
2022/03/03 06:35:35;;;;;;;;;;;-4.00;92.20;;;;;;5082439;28;19916;-69
2022/03/03 06:38:05;;;;;;;;;;;-3.90;92.20;;;;;;5081012;28;20084;-68
2022/03/03 06:40:31;;;;;;;;;;;-3.80;92.10;;;;;;5082180;28;19912;-67
2022/03/03 06:43:00;;;;;;;;;;;-3.70;91.90;;;;;;5082267;28;20235;-67
2022/03/03 06:45:26;;;;;;;;;;;-3.70;91.90;;;;;;5081348;28;19923;-69
2022/03/03 06:47:56;;;;;;;;;;;-3.70;91.90;;;;;;5081143;28;20251;-68
2022/03/03 06:50:21;;;;;;;;;;;-3.60;91.90;;;;;;5080928;28;19913;-68
2022/03/03 06:52:47;;;;;;;;;;;-3.60;91.80;;;;;;5080859;28;20106;-68
2022/03/03 06:55:13;;;;;;;;;;;-3.50;92.20;;;;;;5081047;28;19984;-68
2022/03/03 06:57:39;;;;;;;;;;;-3.40;92.00;;;;;;5080759;28;20145;-68
2022/03/03 07:00:05;;;;;;;;;;;-3.40;91.80;;;;;;5080646;28;19916;-69
2022/03/03 07:02:31;;;;;;;;;;;-3.20;91.80;;;;;;5082040;28;19912;-67
2022/03/03 07:04:57;;;;;;;;;;;-3.20;92.00;;;;;;5082125;28;19915;-69
2022/03/03 07:07:22;;;;;;;;;;;-3.20;92.00;;;;;;5082052;28;20164;-69
2022/03/03 07:09:48;;;;;;;;;;;-3.00;91.80;;;;;;5080618;28;19987;-68
2022/03/03 07:12:15;;;;;;;;;;;-3.00;91.70;;;;;;5063702;28;19946;-69
2022/03/03 07:14:41;;;;;;;;;;;-2.90;91.60;;;;;;5081917;28;20249;-69
2022/03/03 07:17:15;;;;;;;;;;;-2.80;91.60;;;;;;5080424;28;19908;-68
2022/03/03 07:19:50;;;;;;;;;;;-2.70;91.50;;;;;;5080571;28;19908;-68
2022/03/03 07:22:19;;;;;;;;;;;-2.60;91.30;;;;;;5080016;28;19992;-67
2022/03/03 07:24:47;;;;;;;;;;;-2.50;91.40;;;;;;5080139;28;20132;-69
2022/03/03 07:27:20;;;;;;;;;;;-2.50;90.90;;;;;;5080528;28;20317;-69
2022/03/03 07:29:59;;;;;;;;;;;-2.40;90.60;;;;;;5080188;28;19966;-68
2022/03/03 07:32:45;;;;;;;;;;;-2.30;90.90;;;;;;5081316;28;20210;-69
2022/03/03 07:35:12;;;;;;;;;;;-2.20;90.10;;;;;;5079479;28;19987;-68
2022/03/03 07:37:50;;;;;;;;;;;-2.00;89.10;;;;;;5081397;28;19919;-69
2022/03/03 07:40:15;;;;;;;;;;;-2.00;89.40;;;;;;5080120;28;19915;-69
2022/03/03 07:42:41;;;;;;;;;;;-1.90;89.20;;;;;;5079992;28;19979;-69
2022/03/03 07:45:07;;;;;;;;;;;-1.80;88.10;;;;;;5079283;28;20019;-69
2022/03/03 07:47:33;;;;;;;;;;;-1.80;88.30;;;;;;5081055;28;19916;-69
2022/03/03 07:49:59;;;;;;;;;;;-1.70;88.30;;;;;;5079968;28;19921;-69
2022/03/03 07:52:25;;;;;;;;;;;-1.60;88.40;;;;;;5081002;28;19924;-69
2022/03/03 07:54:51;;;;;;;;;;;-1.50;87.50;;;;;;5081338;28;19915;-69
2022/03/03 07:57:18;;;;;;;;;;;-1.40;87.60;;;;;;5079900;28;19909;-69
2022/03/03 07:59:48;;;;;;;;;;;-1.40;87.70;;;;;;5079929;28;19908;-69
2022/03/03 08:02:22;;;;;;;;;;;-1.40;87.90;;;;;;5079318;28;19909;-69
2022/03/03 08:04:49;;;;;;;;;;;-1.30;88.40;;;;;;5081338;28;20020;-69
2022/03/03 08:07:15;;;;;;;;;;;-1.20;88.40;;;;;;5080006;28;20104;-70
2022/03/03 08:09:41;;;;;;;;;;;-1.20;88.00;;;;;;5079947;28;19977;-70
2022/03/03 08:12:07;;;;;;;;;;;-1.10;88.50;;;;;;5080204;28;19912;-70
2022/03/03 08:14:33;;;;;;;;;;;-1.00;88.40;;;;;;5081064;28;19908;-69
2022/03/03 08:16:59;;;;;;;;;;;-0.90;88.40;;;;;;5079597;28;19915;-70
2022/03/03 08:19:25;;;;;;;;;;;-0.90;87.90;;;;;;5080982;28;19916;-70
2022/03/03 08:21:51;;;;;;;;;;;-0.80;87.60;;;;;;5080749;28;19908;-70
2022/03/03 08:24:16;;;;;;;;;;;-0.70;87.40;;;;;;5080123;28;19912;-70
2022/03/03 08:26:43;;;;;;;;;;;-0.70;87.30;;;;;;5081098;28;19916;-69
2022/03/03 08:29:09;;;;;;;;;;;-0.60;87.20;;;;;;5080740;28;20091;-69
2022/03/03 08:31:40;;;;;;;;;;;-0.60;86.80;;;;;;5080109;28;19921;-69
2022/03/03 08:34:19;;;;;;;;;;;-0.40;86.50;;;;;;5079715;28;20229;-69
2022/03/03 08:37:00;;;;;;;;;;;-0.40;86.20;;;;;;5079849;28;20237;-69
2022/03/03 08:39:29;;;;;;;;;;;-0.30;86.10;;;;;;5079821;28;19947;-69
2022/03/03 08:41:56;;;;;;;;;;;-0.20;85.70;;;;;;5079210;28;19920;-69
2022/03/03 08:44:27;;;;;;;;;;;0.00;85.10;;;;;;5080974;28;19908;-69
2022/03/03 08:46:53;;;;;;;;;;;0.00;84.50;;;;;;5078920;28;20232;-70
2022/03/03 08:49:18;;;;;;;;;;;0.10;84.50;;;;;;5062989;28;19958;-69
2022/03/03 08:51:44;;;;;;;;;;;0.20;84.40;;;;;;5078951;28;20407;-70
2022/03/03 08:54:11;;;;;;;;;;;0.40;84.90;;;;;;5080800;28;19969;-70
2022/03/03 08:56:37;;;;;;;;;;;0.50;83.60;;;;;;5082584;28;19923;-70
2022/03/03 08:59:02;;;;;;;;;;;0.50;82.50;;;;;;5084378;28;19909;-69
2022/03/03 09:01:29;;;;;;;;;;;0.60;83.10;;;;;;5082617;28;19928;-70
2022/03/03 09:03:56;;;;;;;;;;;0.70;82.60;;;;;;5083137;28;19912;-69
2022/03/03 09:06:22;;;;;;;;;;;0.90;82.00;;;;;;5084300;28;19908;-69
2022/03/03 09:08:48;;;;;;;;;;;1.00;82.30;;;;;;5082951;28;19915;-69
2022/03/03 09:11:15;;;;;;;;;;;1.00;81.80;;;;;;5083830;28;19912;-69
2022/03/03 09:13:40;;;;;;;;;;;1.20;80.10;;;;;;5083935;28;20233;-69
2022/03/03 09:16:06;;;;;;;;;;;1.40;79.50;;;;;;5083802;28;19909;-69
2022/03/03 09:18:33;;;;;;;;;;;1.40;79.50;;;;;;5083947;28;19954;-69
2022/03/03 09:20:59;;;;;;;;;;;1.50;78.00;;;;;;5083823;28;19981;-70
2022/03/03 09:23:25;;;;;;;;;;;1.50;78.00;;;;;;5083840;28;19917;-69
2022/03/03 09:25:51;;;;;;;;;;;1.50;78.20;;;;;;5082785;28;19908;-70
2022/03/03 09:28:16;;;;;;;;;;;1.50;77.80;;;;;;5082592;28;20119;-69
2022/03/03 09:30:42;;;;;;;;;;;1.70;77.00;;;;;;5083173;28;19919;-70
2022/03/03 09:33:08;;;;;;;;;;;1.70;76.70;;;;;;5083517;28;19916;-69
2022/03/03 09:35:34;;;;;;;;;;;1.80;77.20;;;;;;5083667;28;19954;-69
2022/03/03 09:38:00;;;;;;;;;;;2.00;76.80;;;;;;5082162;28;19931;-70
2022/03/03 09:40:25;;;;;;;;;;;2.20;76.70;;;;;;5082308;28;19916;-69
2022/03/03 09:42:56;;;;;;;;;;;2.40;71.40;;;;;;5081068;28;19908;-69
2022/03/03 09:45:21;;;;;;;;;;;2.50;70.20;;;;;;5082055;28;19932;-69
2022/03/03 09:47:47;;;;;;;;;;;2.60;71.00;;;;;;5081667;28;19950;-70
2022/03/03 09:50:13;;;;;;;;;;;2.70;70.20;;;;;;5081766;28;19987;-70
2022/03/03 09:52:38;;;;;;;;;;;2.80;70.20;;;;;;5082607;28;20171;-71
2022/03/03 09:55:05;;;;;;;;;;;2.90;67.00;;;;;;5048325;28;19921;-70
2022/03/03 09:57:31;;;;;;;;;;;3.10;68.00;;;;;;5083102;28;20091;-69
2022/03/03 09:59:57;;;;;;;;;;;3.10;66.10;;;;;;5083136;28;19908;-70
2022/03/03 10:02:23;;;;;;;;;;;3.20;66.80;;;;;;5082827;28;20157;-71
2022/03/03 10:04:49;;;;;;;;;;;3.40;64.80;;;;;;5081804;28;19913;-70
2022/03/03 10:07:15;;;;;;;;;;;3.50;65.10;;;;;;5081142;28;19923;-70
2022/03/03 10:12:27;;;;;;;;;;;3.90;63.20;;;;;;5096678;22;20253;-69
2022/03/03 10:14:57;;;;;;;;;;;4.10;60.70;;;;;;5084214;28;19913;-70
2022/03/03 10:17:36;;;;;;;;;;;4.30;61.20;;;;;;5049873;28;19908;-70
2022/03/03 10:20:04;;;;;;;;;;;4.60;58.60;;;;;;5052700;28;19929;-69
2022/03/03 10:22:58;;;;;;;;;;;4.80;58.50;;;;;;5060849;28;19932;-69
2022/03/03 10:25:28;;;;;;;;;;;5.00;55.60;;;;;;5063949;28;19943;-69
2022/03/03 10:27:54;;;;;;;;;;;5.40;55.00;;;;;;5046192;28;19916;-69
2022/03/03 10:30:20;;;;;;;;;;;5.70;52.20;;;;;;5063618;28;20127;-70
2022/03/03 10:32:47;;;;;;;;;;;5.80;52.20;;;;;;5063518;28;20167;-69
2022/03/03 10:35:14;;;;;;;;;;;5.90;50.90;;;;;;5045940;28;19958;-69
2022/03/03 10:37:42;;;;;;;;;;;6.20;51.90;;;;;;5063649;28;19985;-69
2022/03/03 10:40:10;;;;;;;;;;;6.50;50.50;;;;;;5029553;28;19908;-69
2022/03/03 10:42:37;;;;;;;;;;;6.60;49.50;;;;;;5045586;28;19916;-69
2022/03/03 10:45:15;;;;;;;;;;;6.70;49.60;;;;;;5045883;28;19954;-70
2022/03/03 10:48:06;;;;;;;;;;;7.00;49.60;;;;;;5048056;28;20200;-70
2022/03/03 10:50:45;;;;;;;;;;;7.20;49.40;;;;;;5043231;28;19928;-70
2022/03/03 10:53:11;;;;;;;;;;;7.50;51.20;;;;;;5043699;28;19915;-70
2022/03/03 10:55:37;;;;;;;;;;;7.80;49.80;;;;;;5043336;28;19949;-69
2022/03/03 10:58:02;;;;;;;;;;;8.00;48.00;;;;;;5043256;28;19923;-69
2022/03/03 11:00:30;;;;;;;;;;;8.30;48.50;;;;;;5025563;28;19909;-69
2022/03/03 11:02:57;;;;;;;;;;;8.50;48.50;;;;;;5042156;28;19916;-69
2022/03/03 11:05:24;;;;;;;;;;;8.80;46.70;;;;;;5042222;28;20262;-69
2022/03/03 11:07:50;;;;;;;;;;;9.20;47.30;;;;;;5042055;28;20447;-69
2022/03/03 11:10:20;;;;;;;;;;;9.50;43.80;;;;;;5041663;28;19914;-69
2022/03/03 11:12:46;;;;;;;;;;;9.70;42.20;;;;;;5041472;28;19975;-69
2022/03/03 11:15:13;;;;;;;;;;;10.00;41.80;;;;;;5041853;28;19917;-68
2022/03/03 11:17:39;;;;;;;;;;;10.50;41.70;;;;;;5059121;28;19909;-69
2022/03/03 11:20:05;;;;;;;;;;;11.00;40.40;;;;;;5061558;28;19909;-69
2022/03/03 11:22:31;;;;;;;;;;;11.50;39.40;;;;;;5061267;28;19908;-69
2022/03/03 11:24:58;;;;;;;;;;;12.10;36.50;;;;;;5043944;28;19917;-69
2022/03/03 11:27:34;;;;;;;;;;;12.90;34.60;;;;;;5060380;28;20203;-69
2022/03/03 11:30:18;;;;;;;;;;;14.10;32.30;;;;;;5043805;28;20111;-69
2022/03/03 11:32:45;;;;;;;;;;;15.40;28.20;;;;;;5061117;28;20203;-69
2022/03/03 11:35:12;;;;;;;;;;;17.10;25.80;;;;;;5061482;28;20251;-68
2022/03/03 11:37:45;;;;;;;;;;;18.60;24.80;;;;;;5061471;28;20261;-68
2022/03/03 11:40:12;;;;;;;;;;;20.30;23.60;;;;;;5061537;28;19980;-69
2022/03/03 11:42:52;;;;;;;;;;;21.60;22.90;;;;;;5060751;28;20096;-69
2022/03/03 11:45:28;;;;;;;;;;;22.60;21.10;;;;;;5061491;28;19954;-69
2022/03/03 11:48:08;;;;;;;;;;;24.10;20.90;;;;;;5061359;28;19909;-69
2022/03/03 11:50:33;;;;;;;;;;;24.50;19.30;;;;;;5059782;28;20299;-69
2022/03/03 11:52:59;;;;;;;;;;;25.50;19.60;;;;;;5061349;28;19909;-69
2022/03/03 11:55:35;;;;;;;;;;;26.30;19.10;;;;;;5061292;28;20267;-69
2022/03/03 11:58:09;;;;;;;;;;;27.40;18.40;;;;;;5061176;28;19939;-69
2022/03/03 12:00:39;;;;;;;;;;;26.80;18.50;;;;;;5060134;28;19912;-69
2022/03/03 12:03:06;;;;;;;;;;;26.90;18.60;;;;;;5059965;28;19909;-69
2022/03/03 12:05:34;;;;;;;;;;;27.60;18.60;;;;;;5061280;28;20483;-69
2022/03/03 12:08:05;;;;;;;;;;;28.10;18.10;;;;;;5050212;28;19909;-69
2022/03/03 12:10:33;;;;;;;;;;;28.20;18.10;;;;;;5051717;28;19921;-69
2022/03/03 12:13:26;;;;;;;;;;;28.90;17.90;;;;;;5023822;28;19913;-69
2022/03/03 12:16:19;;;;;;;;;;;29.20;17.70;;;;;;5043682;28;19909;-69
2022/03/03 12:18:47;;;;;;;;;;;29.30;17.20;;;;;;5061150;28;19909;-69
2022/03/03 12:21:33;;;;;;;;;;;29.70;17.80;;;;;;5060858;28;19916;-69
2022/03/03 12:24:14;;;;;;;;;;;30.40;17.70;;;;;;5061048;28;19916;-69
2022/03/03 12:26:55;;;;;;;;;;;31.30;17.30;;;;;;5060872;28;19916;-70
2022/03/03 12:29:33;;;;;;;;;;;32.10;17.10;;;;;;5061036;28;19909;-69
2022/03/03 12:32:36;;;;;;;;;;;31.90;17.40;;;;;;5063240;28;19909;-69
2022/03/03 12:35:09;;;;;;;;;;;31.90;17.10;;;;;;5065353;28;19940;-69
2022/03/03 12:37:40;;;;;;;;;;;31.90;17.10;;;;;;5047292;28;19909;-69
2022/03/03 12:40:06;;;;;;;;;;;31.70;16.80;;;;;;5064926;28;19909;-69
2022/03/03 12:42:32;;;;;;;;;;;32.20;16.70;;;;;;5064102;28;19920;-69
2022/03/03 12:45:00;;;;;;;;;;;31.20;16.60;;;;;;5064719;28;19920;-70
2022/03/03 12:47:58;;;;;;;;;;;32.00;16.80;;;;;;5062598;28;19979;-70
2022/03/03 12:50:26;;;;;;;;;;;32.40;16.80;;;;;;5033873;28;19913;-70
2022/03/03 12:53:10;;;;;;;;;;;32.20;16.30;;;;;;5067157;28;19991;-70
2022/03/03 12:55:53;;;;;;;;;;;32.60;16.70;;;;;;5064629;28;19936;-70
2022/03/03 12:58:19;;;;;;;;;;;32.80;16.70;;;;;;5064533;28;19916;-70
2022/03/03 13:00:46;;;;;;;;;;;33.10;16.10;;;;;;5063883;28;19909;-70
2022/03/03 13:03:13;;;;;;;;;;;32.40;16.30;;;;;;5064109;28;19955;-69
2022/03/03 13:05:38;;;;;;;;;;;33.70;16.00;;;;;;5062970;28;19913;-69
2022/03/03 13:08:06;;;;;;;;;;;32.20;16.10;;;;;;5064361;28;19915;-69
2022/03/03 13:10:34;;;;;;;;;;;32.30;16.40;;;;;;5063985;28;20263;-70
2022/03/03 13:12:59;;;;;;;;;;;32.40;16.80;;;;;;5051204;28;19920;-70
2022/03/03 13:15:33;;;;;;;;;;;31.60;16.30;;;;;;5060606;28;19913;-70
2022/03/03 13:18:03;;;;;;;;;;;31.10;16.30;;;;;;5059488;28;19912;-70
2022/03/03 13:20:36;;;;;;;;;;;30.60;15.60;;;;;;5046057;28;19909;-69
2022/03/03 13:23:03;;;;;;;;;;;32.50;15.90;;;;;;5064190;28;20015;-70
2022/03/03 13:25:29;;;;;;;;;;;32.20;16.20;;;;;;5064054;28;19909;-69
2022/03/03 13:27:55;;;;;;;;;;;31.90;15.70;;;;;;5063923;28;19915;-69
2022/03/03 13:30:21;;;;;;;;;;;31.70;16.00;;;;;;5063684;28;20156;-70
2022/03/03 13:32:48;;;;;;;;;;;30.60;16.30;;;;;;5063335;28;19917;-69
2022/03/03 13:35:14;;;;;;;;;;;30.90;16.00;;;;;;5054866;28;19975;-69
2022/03/03 13:37:40;;;;;;;;;;;32.50;15.90;;;;;;5032474;28;19921;-69
2022/03/03 13:40:22;;;;;;;;;;;31.40;16.20;;;;;;5049062;28;19915;-69
2022/03/03 13:42:55;;;;;;;;;;;31.00;16.00;;;;;;5025014;28;20093;-69
2022/03/03 13:45:36;;;;;;;;;;;31.40;16.10;;;;;;5044118;28;20204;-69
2022/03/03 13:48:05;;;;;;;;;;;31.40;16.30;;;;;;5056169;28;20214;-69
2022/03/03 13:50:31;;;;;;;;;;;31.90;16.90;;;;;;5063265;28;19912;-69
2022/03/03 13:53:23;;;;;;;;;;;31.00;17.00;;;;;;5062079;28;20248;-69
2022/03/03 13:56:14;;;;;;;;;;;30.50;17.20;;;;;;5063497;28;20064;-69
2022/03/03 13:58:40;;;;;;;;;;;30.20;16.70;;;;;;5063168;28;19916;-69
2022/03/03 14:01:07;;;;;;;;;;;29.10;17.40;;;;;;5063107;28;19909;-69
2022/03/03 14:03:34;;;;;;;;;;;29.30;17.60;;;;;;5062233;28;20046;-69
2022/03/03 14:06:03;;;;;;;;;;;29.60;17.40;;;;;;5045487;28;20248;-69
2022/03/03 14:08:31;;;;;;;;;;;29.90;17.40;;;;;;5063358;28;19908;-69
2022/03/03 14:11:10;;;;;;;;;;;29.30;17.00;;;;;;5062770;28;20015;-69
2022/03/03 14:13:45;;;;;;;;;;;29.00;16.90;;;;;;5058021;28;19985;-69
2022/03/03 14:16:12;;;;;;;;;;;28.60;16.80;;;;;;5043211;28;19948;-69
2022/03/03 14:18:37;;;;;;;;;;;29.30;17.00;;;;;;5037822;28;19920;-69
2022/03/03 14:21:03;;;;;;;;;;;30.20;16.60;;;;;;5053233;28;19916;-69
2022/03/03 14:23:29;;;;;;;;;;;30.00;16.50;;;;;;5051767;28;19947;-69
2022/03/03 14:25:59;;;;;;;;;;;29.40;16.90;;;;;;5036650;28;19980;-69